Time;durP1;ratioP1;P1;durP2;ratioP2;P2;SDS_P1;SDS_P2;PMS_P1;PMS_P2;Temp;Humidity;BMP_temperature;BMP_pressure;BME280_temperature;BME280_humidity;BME280_pressure;Samples;Min_cycle;Max_cycle;Signal;HPM_P1;HPM_P2
2022/06/28 00:00:13;;;;;;;0.00;0.00;;;;;;;;;;4930196;29;20036;-62
2022/06/28 00:02:39;;;;;;;0.00;0.00;;;;;;;;;;4927635;29;20501;-62
2022/06/28 00:05:04;;;;;;;0.25;0.25;;;;;;;;;;4930896;29;20376;-62
2022/06/28 00:07:30;;;;;;;0.08;0.08;;;;;;;;;;4930999;29;20024;-62
2022/06/28 00:09:55;;;;;;;0.10;0.10;;;;;;;;;;4931515;29;20028;-61
2022/06/28 00:12:20;;;;;;;0.00;0.00;;;;;;;;;;4930183;29;20034;-62
2022/06/28 00:17:29;;;;;;;0.00;0.00;;;;;;;;;;4929792;29;20445;-62
2022/06/28 00:19:54;;;;;;;0.00;0.00;;;;;;;;;;4930044;29;20051;-62
2022/06/28 00:22:19;;;;;;;0.00;0.00;;;;;;;;;;4931172;29;20031;-61
2022/06/28 00:24:45;;;;;;;0.00;0.00;;;;;;;;;;4931374;29;20023;-62
2022/06/28 00:27:10;;;;;;;0.00;0.00;;;;;;;;;;4931553;29;20066;-62
2022/06/28 00:29:35;;;;;;;0.00;0.00;;;;;;;;;;4913646;29;20473;-62
2022/06/28 00:32:00;;;;;;;0.00;0.00;;;;;;;;;;4931258;29;20035;-62
2022/06/28 00:34:26;;;;;;;0.00;0.00;;;;;;;;;;4928472;29;20450;-61
2022/06/28 00:36:51;;;;;;;0.00;0.00;;;;;;;;;;4931558;29;20024;-62
2022/06/28 00:39:16;;;;;;;0.00;0.00;;;;;;;;;;4931166;29;20036;-61
2022/06/28 00:41:42;;;;;;;0.00;0.00;;;;;;;;;;4931191;29;20027;-63
2022/06/28 00:44:09;;;;;;;0.00;0.00;;;;;;;;;;4931311;29;20020;-63
2022/06/28 00:46:34;;;;;;;0.00;0.00;;;;;;;;;;4930637;29;20718;-60
2022/06/28 00:49:01;;;;;;;0.00;0.00;;;;;;;;;;4930319;29;20027;-61
2022/06/28 00:51:26;;;;;;;0.00;0.00;;;;;;;;;;4930510;29;20027;-61
2022/06/28 00:53:51;;;;;;;0.00;0.00;;;;;;;;;;4931135;29;20043;-61
2022/06/28 00:56:17;;;;;;;0.00;0.00;;;;;;;;;;4930483;29;20482;-61
2022/06/28 00:58:42;;;;;;;0.00;0.00;;;;;;;;;;4931315;29;20026;-61
2022/06/28 01:01:07;;;;;;;0.00;0.00;;;;;;;;;;4929227;29;20031;-61
2022/06/28 01:03:32;;;;;;;0.00;0.00;;;;;;;;;;4930557;29;20059;-61
2022/06/28 01:05:58;;;;;;;0.00;0.00;;;;;;;;;;4931066;29;20099;-61
2022/06/28 01:08:23;;;;;;;0.00;0.00;;;;;;;;;;4934375;29;20019;-62
2022/06/28 01:10:48;;;;;;;0.00;0.00;;;;;;;;;;4934661;29;20034;-62
2022/06/28 01:13:14;;;;;;;0.00;0.00;;;;;;;;;;4933927;29;20024;-62
2022/06/28 01:15:41;;;;;;;0.00;0.00;;;;;;;;;;4933947;29;20030;-61
2022/06/28 01:18:06;;;;;;;0.00;0.00;;;;;;;;;;4933443;29;20063;-61
2022/06/28 01:20:31;;;;;;;0.00;0.00;;;;;;;;;;4934104;29;20043;-62
2022/06/28 01:22:57;;;;;;;0.00;0.00;;;;;;;;;;4934351;29;20027;-62
2022/06/28 01:25:23;;;;;;;0.00;0.00;;;;;;;;;;4933254;29;20487;-61
2022/06/28 01:27:49;;;;;;;0.00;0.00;;;;;;;;;;4934496;29;20418;-61
2022/06/28 01:30:15;;;;;;;0.00;0.00;;;;;;;;;;4934420;29;20407;-62
2022/06/28 01:32:40;;;;;;;0.00;0.00;;;;;;;;;;4933932;29;20102;-62
2022/06/28 01:35:06;;;;;;;0.00;0.00;;;;;;;;;;4933709;29;20054;-62
2022/06/28 01:37:32;;;;;;;0.00;0.00;;;;;;;;;;4933593;29;20034;-61
2022/06/28 01:39:58;;;;;;;0.00;0.00;;;;;;;;;;4934463;29;20031;-61
2022/06/28 01:42:23;;;;;;;0.00;0.00;;;;;;;;;;4930261;29;20023;-62
2022/06/28 01:44:49;;;;;;;0.00;0.00;;;;;;;;;;4932909;29;20497;-61
2022/06/28 01:47:16;;;;;;;0.00;0.00;;;;;;;;;;4933210;29;20589;-62
2022/06/28 01:49:41;;;;;;;0.00;0.00;;;;;;;;;;4933155;29;20067;-62
2022/06/28 01:52:06;;;;;;;0.00;0.00;;;;;;;;;;4933686;29;20489;-61
2022/06/28 01:54:31;;;;;;;0.00;0.00;;;;;;;;;;4932592;29;20469;-61
2022/06/28 01:56:57;;;;;;;0.00;0.00;;;;;;;;;;4933619;29;20062;-61
2022/06/28 01:59:23;;;;;;;0.00;0.00;;;;;;;;;;4933093;29;20028;-63
2022/06/28 02:01:49;;;;;;;0.32;0.32;;;;;;;;;;4932002;29;20027;-62
2022/06/28 02:04:18;;;;;;;0.00;0.00;;;;;;;;;;4933134;29;20078;-61
2022/06/28 02:06:43;;;;;;;0.00;0.00;;;;;;;;;;4933176;29;20027;-62
2022/06/28 02:09:08;;;;;;;0.00;0.00;;;;;;;;;;4932688;29;20047;-62
2022/06/28 02:11:34;;;;;;;0.00;0.00;;;;;;;;;;4933050;29;20019;-61
2022/06/28 02:13:59;;;;;;;0.00;0.00;;;;;;;;;;4932634;29;20382;-62
2022/06/28 02:16:24;;;;;;;0.00;0.00;;;;;;;;;;4931535;29;20489;-62
2022/06/28 02:18:49;;;;;;;0.00;0.00;;;;;;;;;;4932885;29;20226;-62
2022/06/28 02:21:14;;;;;;;0.00;0.00;;;;;;;;;;4931932;29;20425;-62
2022/06/28 02:23:40;;;;;;;0.00;0.00;;;;;;;;;;4932592;29;20027;-62
2022/06/28 02:26:08;;;;;;;0.00;0.00;;;;;;;;;;4932563;29;20556;-62
2022/06/28 02:28:33;;;;;;;0.00;0.00;;;;;;;;;;4928675;29;20020;-62
2022/06/28 02:30:58;;;;;;;0.00;0.00;;;;;;;;;;4932994;29;20099;-62
2022/06/28 02:33:23;;;;;;;0.00;0.00;;;;;;;;;;4931597;29;20024;-62
2022/06/28 02:41:16;;;;;;;0.00;0.00;;;;;;;;;;4932633;29;20385;-63
2022/06/28 02:43:41;;;;;;;0.00;0.00;;;;;;;;;;4931271;29;20040;-63
2022/06/28 02:46:07;;;;;;;0.00;0.00;;;;;;;;;;4932878;29;20039;-62
2022/06/28 02:48:32;;;;;;;0.00;0.00;;;;;;;;;;4932663;29;20024;-62
2022/06/28 02:50:57;;;;;;;0.00;0.00;;;;;;;;;;4933028;29;20079;-63
2022/06/28 02:53:22;;;;;;;0.00;0.00;;;;;;;;;;4932449;29;20028;-62
2022/06/28 02:55:47;;;;;;;0.00;0.00;;;;;;;;;;4915902;29;20084;-62
2022/06/28 02:58:13;;;;;;;0.00;0.00;;;;;;;;;;4932544;29;20023;-62
2022/06/28 03:00:38;;;;;;;0.00;0.00;;;;;;;;;;4932549;29;20036;-62
2022/06/28 03:03:03;;;;;;;0.00;0.00;;;;;;;;;;4932512;29;20050;-62
2022/06/28 03:05:28;;;;;;;0.00;0.00;;;;;;;;;;4931289;29;20023;-61
2022/06/28 03:07:54;;;;;;;0.00;0.00;;;;;;;;;;4931161;29;20110;-62
2022/06/28 03:10:19;;;;;;;0.00;0.00;;;;;;;;;;4932642;29;20036;-62
2022/06/28 03:12:44;;;;;;;0.00;0.00;;;;;;;;;;4931531;29;20032;-61
2022/06/28 03:15:11;;;;;;;0.05;0.03;;;;;;;;;;4932495;29;20504;-62
2022/06/28 03:17:36;;;;;;;0.00;0.00;;;;;;;;;;4932406;29;20389;-62
2022/06/28 03:20:01;;;;;;;0.00;0.00;;;;;;;;;;4932147;29;20138;-61
2022/06/28 03:22:27;;;;;;;0.00;0.00;;;;;;;;;;4930911;29;20046;-63
2022/06/28 03:24:52;;;;;;;0.00;0.00;;;;;;;;;;4932478;29;20027;-62
2022/06/28 03:27:17;;;;;;;0.00;0.00;;;;;;;;;;4930681;29;20058;-62
2022/06/28 03:29:42;;;;;;;0.00;0.00;;;;;;;;;;4931960;29;20036;-62
2022/06/28 03:32:07;;;;;;;0.00;0.00;;;;;;;;;;4929567;29;20076;-62
2022/06/28 03:34:33;;;;;;;0.00;0.00;;;;;;;;;;4929817;29;20520;-62
2022/06/28 03:36:58;;;;;;;0.00;0.00;;;;;;;;;;4932642;29;20497;-62
2022/06/28 03:39:23;;;;;;;0.45;0.45;;;;;;;;;;4930722;29;20027;-63
2022/06/28 03:41:48;;;;;;;0.00;0.00;;;;;;;;;;4932334;29;20114;-61
2022/06/28 03:44:14;;;;;;;0.00;0.00;;;;;;;;;;4931125;29;20019;-62
2022/06/28 03:46:39;;;;;;;0.00;0.00;;;;;;;;;;4930926;29;20028;-62
2022/06/28 03:49:04;;;;;;;0.00;0.00;;;;;;;;;;4930707;29;20038;-62
2022/06/28 03:51:29;;;;;;;0.00;0.00;;;;;;;;;;4931580;29;20533;-63
2022/06/28 03:53:54;;;;;;;0.00;0.00;;;;;;;;;;4932173;29;20023;-62
2022/06/28 03:56:20;;;;;;;0.00;0.00;;;;;;;;;;4929530;29;20026;-62
2022/06/28 03:58:45;;;;;;;0.00;0.00;;;;;;;;;;4930998;29;20028;-62
2022/06/28 04:01:10;;;;;;;0.00;0.00;;;;;;;;;;4914914;29;20358;-62
2022/06/28 04:03:35;;;;;;;0.00;0.00;;;;;;;;;;4931338;29;20465;-61
2022/06/28 04:06:01;;;;;;;0.00;0.00;;;;;;;;;;4932061;29;20039;-62
2022/06/28 04:08:26;;;;;;;0.00;0.00;;;;;;;;;;4931108;29;20028;-61
2022/06/28 04:11:13;;;;;;;0.00;0.00;;;;;;;;;;4931250;29;20019;-61
2022/06/28 04:13:37;;;;;;;0.00;0.00;;;;;;;;;;4931916;29;20042;-61
2022/06/28 04:16:03;;;;;;;0.00;0.00;;;;;;;;;;4931890;28;20024;-63
2022/06/28 04:18:28;;;;;;;0.00;0.00;;;;;;;;;;4929664;29;20497;-61
2022/06/28 04:20:53;;;;;;;0.00;0.00;;;;;;;;;;4931797;29;20385;-62
2022/06/28 04:23:18;;;;;;;0.00;0.00;;;;;;;;;;4931696;29;20023;-61
2022/06/28 04:25:43;;;;;;;0.00;0.00;;;;;;;;;;4931282;29;20038;-61
2022/06/28 04:28:09;;;;;;;0.00;0.00;;;;;;;;;;4930709;29;20059;-61
2022/06/28 04:30:34;;;;;;;0.00;0.00;;;;;;;;;;4930369;29;20102;-61
2022/06/28 04:32:59;;;;;;;0.00;0.00;;;;;;;;;;4913610;29;20123;-61
2022/06/28 04:35:24;;;;;;;0.00;0.00;;;;;;;;;;4929594;29;20046;-61
2022/06/28 04:37:50;;;;;;;0.00;0.00;;;;;;;;;;4930922;29;20066;-61
2022/06/28 04:40:15;;;;;;;0.00;0.00;;;;;;;;;;4934030;29;20030;-60
2022/06/28 04:42:40;;;;;;;0.00;0.00;;;;;;;;;;4934355;29;20033;-59
2022/06/28 04:45:06;;;;;;;0.00;0.00;;;;;;;;;;4929507;29;20036;-61
2022/06/28 04:47:31;;;;;;;0.00;0.00;;;;;;;;;;4933522;29;20031;-61
2022/06/28 04:49:56;;;;;;;0.00;0.00;;;;;;;;;;4934515;29;20023;-62
2022/06/28 04:52:21;;;;;;;0.00;0.00;;;;;;;;;;4935269;29;20032;-62
2022/06/28 04:54:47;;;;;;;0.00;0.00;;;;;;;;;;4934713;29;20032;-61
2022/06/28 04:57:12;;;;;;;0.00;0.00;;;;;;;;;;4934599;29;20091;-61
2022/06/28 04:59:37;;;;;;;0.00;0.00;;;;;;;;;;4934744;29;20031;-62
2022/06/28 05:02:02;;;;;;;10.18;0.85;;;;;;;;;;4934968;29;20039;-61
2022/06/28 05:04:28;;;;;;;0.00;0.00;;;;;;;;;;4933387;29;20032;-62
2022/06/28 05:06:53;;;;;;;0.00;0.00;;;;;;;;;;4933649;29;20100;-62
2022/06/28 05:09:18;;;;;;;0.00;0.00;;;;;;;;;;4935045;29;20083;-63
2022/06/28 05:11:43;;;;;;;0.00;0.00;;;;;;;;;;4934654;29;20071;-63
2022/06/28 05:14:08;;;;;;;0.15;0.15;;;;;;;;;;4933778;29;20437;-62
2022/06/28 05:16:34;;;;;;;0.00;0.00;;;;;;;;;;4934592;29;20465;-62
2022/06/28 05:18:59;;;;;;;0.00;0.00;;;;;;;;;;4927472;29;20056;-63
2022/06/28 05:21:24;;;;;;;0.00;0.00;;;;;;;;;;4920908;29;20032;-64
2022/06/28 05:23:49;;;;;;;0.00;0.00;;;;;;;;;;4926601;29;20034;-64
2022/06/28 05:26:15;;;;;;;0.00;0.00;;;;;;;;;;4928225;29;20015;-64
2022/06/28 05:28:40;;;;;;;0.00;0.00;;;;;;;;;;4926380;29;20031;-63
2022/06/28 05:31:05;;;;;;;0.00;0.00;;;;;;;;;;4929303;29;20099;-63
2022/06/28 05:33:31;;;;;;;0.00;0.00;;;;;;;;;;4926087;29;20448;-63
2022/06/28 05:35:56;;;;;;;0.00;0.00;;;;;;;;;;4927273;29;20524;-63
2022/06/28 05:38:21;;;;;;;0.20;0.20;;;;;;;;;;4931943;29;21098;-63
2022/06/28 05:40:46;;;;;;;0.00;0.00;;;;;;;;;;4932034;29;20489;-63
2022/06/28 05:43:12;;;;;;;0.00;0.00;;;;;;;;;;4928421;29;20388;-63
2022/06/28 05:45:37;;;;;;;0.00;0.00;;;;;;;;;;4929829;29;20189;-63
2022/06/28 05:48:02;;;;;;;0.35;0.35;;;;;;;;;;4925027;29;20065;-63
2022/06/28 05:50:27;;;;;;;0.30;0.30;;;;;;;;;;4930330;29;20486;-64
2022/06/28 05:52:53;;;;;;;0.05;0.05;;;;;;;;;;4928572;29;20470;-64
2022/06/28 05:55:18;;;;;;;0.00;0.00;;;;;;;;;;4929405;29;20019;-64
2022/06/28 05:57:43;;;;;;;0.00;0.00;;;;;;;;;;4928939;29;20135;-64
2022/06/28 06:00:09;;;;;;;0.00;0.00;;;;;;;;;;4927561;29;20068;-64
2022/06/28 06:02:34;;;;;;;0.00;0.00;;;;;;;;;;4923031;29;20379;-64
2022/06/28 06:05:02;;;;;;;0.65;0.65;;;;;;;;;;4929694;29;20028;-64
2022/06/28 06:07:27;;;;;;;0.00;0.00;;;;;;;;;;4928807;29;20550;-64
2022/06/28 06:09:53;;;;;;;0.00;0.00;;;;;;;;;;4927333;29;20028;-64
2022/06/28 06:12:20;;;;;;;0.00;0.00;;;;;;;;;;4931855;29;20027;-64
2022/06/28 06:14:46;;;;;;;0.00;0.00;;;;;;;;;;4928882;29;20437;-64
2022/06/28 06:17:11;;;;;;;0.00;0.00;;;;;;;;;;4930904;29;20087;-64
2022/06/28 06:19:36;;;;;;;0.63;0.63;;;;;;;;;;4933207;29;20127;-64
2022/06/28 06:22:01;;;;;;;0.00;0.00;;;;;;;;;;4932788;29;20285;-64
2022/06/28 06:24:27;;;;;;;0.00;0.00;;;;;;;;;;4929186;29;20274;-64
2022/06/28 06:26:52;;;;;;;0.00;0.00;;;;;;;;;;4931403;29;20067;-64
2022/06/28 06:29:17;;;;;;;0.00;0.00;;;;;;;;;;4927713;29;20023;-64
2022/06/28 06:31:42;;;;;;;0.00;0.00;;;;;;;;;;4929585;29;20027;-64
2022/06/28 06:34:08;;;;;;;0.08;0.08;;;;;;;;;;4930115;29;20023;-65
2022/06/28 06:36:33;;;;;;;0.00;0.00;;;;;;;;;;4931341;29;20027;-64
2022/06/28 06:38:58;;;;;;;0.10;0.10;;;;;;;;;;4930997;29;20028;-64
2022/06/28 06:41:24;;;;;;;0.00;0.00;;;;;;;;;;4932180;29;20047;-64
2022/06/28 06:43:49;;;;;;;0.00;0.00;;;;;;;;;;4932439;29;20038;-65
2022/06/28 06:46:14;;;;;;;0.13;0.00;;;;;;;;;;4931320;29;20024;-65
2022/06/28 06:48:39;;;;;;;0.00;0.00;;;;;;;;;;4932066;29;20034;-64
2022/06/28 06:51:05;;;;;;;0.00;0.00;;;;;;;;;;4929795;29;20482;-64
2022/06/28 06:53:30;;;;;;;0.00;0.00;;;;;;;;;;4929111;29;20421;-64
2022/06/28 06:55:55;;;;;;;0.00;0.00;;;;;;;;;;4932432;29;20034;-64
2022/06/28 06:58:20;;;;;;;0.00;0.00;;;;;;;;;;4932307;29;20035;-64
2022/06/28 07:00:46;;;;;;;0.00;0.00;;;;;;;;;;4931336;29;20090;-64
2022/06/28 07:03:11;;;;;;;0.00;0.00;;;;;;;;;;4931084;29;20159;-66
2022/06/28 07:05:36;;;;;;;0.00;0.00;;;;;;;;;;4931175;29;20385;-65
2022/06/28 07:08:02;;;;;;;0.10;0.10;;;;;;;;;;4930672;29;20774;-65
2022/06/28 07:10:27;;;;;;;0.00;0.00;;;;;;;;;;4930668;29;20023;-65
2022/06/28 07:12:52;;;;;;;0.15;0.15;;;;;;;;;;4930437;29;20023;-65
2022/06/28 07:15:18;;;;;;;0.00;0.00;;;;;;;;;;4930669;29;20024;-66
2022/06/28 07:17:43;;;;;;;0.00;0.00;;;;;;;;;;4931377;29;20035;-65
2022/06/28 07:20:09;;;;;;;0.00;0.00;;;;;;;;;;4931422;29;20055;-64
2022/06/28 07:22:34;;;;;;;0.00;0.00;;;;;;;;;;4930378;29;20598;-65
2022/06/28 07:25:00;;;;;;;0.00;0.00;;;;;;;;;;4931766;29;20031;-65
2022/06/28 07:27:25;;;;;;;0.00;0.00;;;;;;;;;;4930916;29;20267;-65
2022/06/28 07:29:51;;;;;;;0.00;0.00;;;;;;;;;;4931564;29;20047;-65
2022/06/28 07:32:16;;;;;;;0.10;0.10;;;;;;;;;;4928883;29;20119;-65
2022/06/28 07:34:41;;;;;;;0.00;0.00;;;;;;;;;;4931216;29;20030;-65
2022/06/28 07:37:07;;;;;;;0.05;0.00;;;;;;;;;;4931582;29;20027;-67
2022/06/28 07:39:32;;;;;;;0.00;0.00;;;;;;;;;;4931119;29;20019;-62
2022/06/28 07:41:57;;;;;;;0.40;0.00;;;;;;;;;;4931519;29;20111;-64
2022/06/28 07:44:22;;;;;;;0.00;0.00;;;;;;;;;;4931272;29;20428;-65
2022/06/28 07:46:48;;;;;;;0.00;0.00;;;;;;;;;;4930933;29;20725;-65
2022/06/28 07:49:13;;;;;;;0.00;0.00;;;;;;;;;;4928919;29;20024;-65
2022/06/28 07:54:22;;;;;;;0.00;0.00;;;;;;;;;;4928038;29;20031;-65
2022/06/28 07:56:47;;;;;;;0.15;0.15;;;;;;;;;;4928814;29;20015;-64
2022/06/28 07:59:12;;;;;;;0.00;0.00;;;;;;;;;;4930671;29;20110;-65
2022/06/28 08:01:38;;;;;;;0.00;0.00;;;;;;;;;;4928759;29;20027;-65
2022/06/28 08:04:03;;;;;;;0.03;0.03;;;;;;;;;;4931484;29;20083;-64
2022/06/28 08:06:28;;;;;;;0.15;0.00;;;;;;;;;;4931226;29;20042;-64
2022/06/28 08:08:53;;;;;;;0.00;0.00;;;;;;;;;;4929767;29;20582;-64
2022/06/28 08:11:19;;;;;;;0.03;0.03;;;;;;;;;;4929650;29;20055;-64
2022/06/28 08:13:47;;;;;;;0.43;0.43;;;;;;;;;;4929839;29;20255;-65
2022/06/28 08:16:13;;;;;;;;;;;;;;;;;;4931372;29;20043;-64
2022/06/28 08:18:38;;;;;;;0.00;0.00;;;;;;;;;;4929484;29;19914;-64
2022/06/28 08:21:03;;;;;;;0.00;0.00;;;;;;;;;;4931408;29;20031;-66
2022/06/28 08:23:28;;;;;;;0.00;0.00;;;;;;;;;;4930792;29;20035;-66
2022/06/28 08:25:54;;;;;;;0.00;0.00;;;;;;;;;;4931216;29;20024;-65
2022/06/28 08:28:19;;;;;;;0.00;0.00;;;;;;;;;;4930018;29;20127;-65
2022/06/28 08:30:44;;;;;;;0.00;0.00;;;;;;;;;;4930802;29;20020;-65
2022/06/28 08:33:10;;;;;;;0.03;0.00;;;;;;;;;;4931518;29;20106;-65
2022/06/28 08:35:35;;;;;;;14.13;3.33;;;;;;;;;;4931019;29;20452;-65
2022/06/28 08:38:01;;;;;;;0.00;0.00;;;;;;;;;;4930285;29;20028;-64
2022/06/28 08:40:27;;;;;;;0.00;0.00;;;;;;;;;;4931040;29;20110;-64
2022/06/28 08:42:53;;;;;;;0.50;0.43;;;;;;;;;;4930410;29;20043;-65
2022/06/28 08:45:20;;;;;;;0.22;0.22;;;;;;;;;;4930343;29;20035;-67
2022/06/28 08:47:47;;;;;;;0.00;0.00;;;;;;;;;;4930377;29;20059;-63
2022/06/28 08:50:17;;;;;;;0.00;0.00;;;;;;;;;;4914238;29;20027;-64
2022/06/28 08:52:43;;;;;;;0.00;0.00;;;;;;;;;;4929116;29;20409;-63
2022/06/28 08:55:09;;;;;;;0.00;0.00;;;;;;;;;;4929795;29;20028;-65
2022/06/28 08:57:35;;;;;;;0.17;0.17;;;;;;;;;;4929349;29;20043;-63
2022/06/28 09:00:03;;;;;;;0.00;0.00;;;;;;;;;;4929678;29;20102;-64
2022/06/28 09:02:28;;;;;;;0.00;0.00;;;;;;;;;;4930028;29;20032;-63
2022/06/28 09:04:54;;;;;;;0.00;0.00;;;;;;;;;;4930935;29;20042;-63
2022/06/28 09:07:20;;;;;;;0.00;0.00;;;;;;;;;;4927393;29;20118;-63
2022/06/28 09:09:45;;;;;;;0.00;0.00;;;;;;;;;;4928603;29;20103;-64
2022/06/28 09:12:11;;;;;;;0.00;0.00;;;;;;;;;;4929920;29;20015;-64
2022/06/28 09:14:36;;;;;;;0.00;0.00;;;;;;;;;;4930143;29;20024;-64
2022/06/28 09:17:20;;;;;;;0.00;0.00;;;;;;;;;;4930747;29;20548;-64
2022/06/28 09:19:45;;;;;;;0.20;0.20;;;;;;;;;;4929894;29;20048;-64
2022/06/28 09:22:26;;;;;;;0.00;0.00;;;;;;;;;;4930240;29;20087;-64
2022/06/28 09:24:51;;;;;;;0.00;0.00;;;;;;;;;;4929892;29;20035;-64
2022/06/28 09:27:26;;;;;;;0.00;0.00;;;;;;;;;;4933338;29;20028;-63
2022/06/28 09:29:51;;;;;;;0.00;0.00;;;;;;;;;;4933583;29;20381;-63
2022/06/28 09:32:24;;;;;;;2.40;1.40;;;;;;;;;;4933787;29;20020;-64
2022/06/28 09:34:57;;;;;;;0.00;0.00;;;;;;;;;;4932581;29;20535;-64
2022/06/28 09:37:42;;;;;;;1.25;0.93;;;;;;;;;;4933247;29;20384;-65
2022/06/28 09:40:08;;;;;;;0.00;0.00;;;;;;;;;;4934217;29;20045;-65
2022/06/28 09:42:34;;;;;;;0.00;0.00;;;;;;;;;;4933322;29;20137;-65
2022/06/28 09:44:59;;;;;;;0.00;0.00;;;;;;;;;;4932162;29;20128;-65
2022/06/28 09:47:24;;;;;;;6.90;1.17;;;;;;;;;;4932527;29;20131;-65
2022/06/28 09:49:49;;;;;;;0.00;0.00;;;;;;;;;;4933971;29;20035;-65
2022/06/28 09:52:16;;;;;;;0.00;0.00;;;;;;;;;;4932473;29;20031;-65
2022/06/28 09:54:44;;;;;;;0.00;0.00;;;;;;;;;;4933212;29;20271;-64
2022/06/28 09:57:11;;;;;;;0.00;0.00;;;;;;;;;;4933534;29;20012;-65
2022/06/28 09:59:37;;;;;;;0.00;0.00;;;;;;;;;;4932820;29;20044;-64
2022/06/28 10:02:02;;;;;;;0.28;0.28;;;;;;;;;;4933194;29;20035;-65
2022/06/28 10:04:28;;;;;;;0.00;0.00;;;;;;;;;;4929843;29;20362;-64
2022/06/28 10:06:53;;;;;;;0.60;0.17;;;;;;;;;;4916176;29;20043;-64
2022/06/28 10:09:19;;;;;;;0.00;0.00;;;;;;;;;;4931841;29;20024;-64
2022/06/28 10:17:34;;;;;;;0.00;0.00;;;;;;;;;;4933491;29;20073;-64
2022/06/28 10:20:00;;;;;;;0.45;0.45;;;;;;;;;;4932754;29;20059;-65
2022/06/28 10:22:25;;;;;;;0.00;0.00;;;;;;;;;;4933336;29;20070;-65
2022/06/28 10:24:55;;;;;;;4.28;0.20;;;;;;;;;;4932048;29;20055;-65
2022/06/28 10:27:21;;;;;;;0.00;0.00;;;;;;;;;;4932781;29;20038;-64
2022/06/28 10:29:58;;;;;;;0.00;0.00;;;;;;;;;;4930598;29;20032;-64
2022/06/28 10:32:50;;;;;;;0.00;0.00;;;;;;;;;;4932983;29;20027;-64
2022/06/28 10:35:30;;;;;;;1.00;0.40;;;;;;;;;;4916672;29;20098;-65
2022/06/28 10:38:07;;;;;;;0.00;0.00;;;;;;;;;;4931116;29;20023;-64
2022/06/28 10:40:38;;;;;;;0.00;0.00;;;;;;;;;;4932597;29;20031;-63
2022/06/28 10:43:03;;;;;;;0.00;0.00;;;;;;;;;;4932745;29;20023;-63
2022/06/28 10:45:48;;;;;;;0.03;0.03;;;;;;;;;;4930766;29;20034;-64
2022/06/28 10:48:14;;;;;;;0.00;0.00;;;;;;;;;;4932187;29;20110;-63
2022/06/28 10:50:56;;;;;;;0.88;0.15;;;;;;;;;;4932162;29;20406;-63
2022/06/28 10:53:22;;;;;;;0.05;0.05;;;;;;;;;;4931877;29;20839;-64
2022/06/28 10:56:06;;;;;;;0.00;0.00;;;;;;;;;;4932396;29;20107;-64
2022/06/28 10:58:31;;;;;;;0.00;0.00;;;;;;;;;;4932908;29;20115;-64
2022/06/28 11:00:56;;;;;;;0.38;0.38;;;;;;;;;;4929261;29;20107;-64
2022/06/28 11:03:21;;;;;;;0.00;0.00;;;;;;;;;;4932216;29;20543;-64
2022/06/28 11:05:51;;;;;;;0.00;0.00;;;;;;;;;;4931809;29;20266;-63
2022/06/28 11:08:35;;;;;;;0.13;0.13;;;;;;;;;;4929337;29;20034;-63
2022/06/28 11:11:02;;;;;;;0.00;0.00;;;;;;;;;;4929513;29;20788;-63
2022/06/28 11:13:27;;;;;;;0.28;0.08;;;;;;;;;;4931475;29;20124;-63
2022/06/28 11:15:53;;;;;;;0.00;0.00;;;;;;;;;;4930584;29;20110;-63
2022/06/28 11:18:23;;;;;;;0.00;0.00;;;;;;;;;;4931866;29;20036;-63
2022/06/28 11:20:48;;;;;;;0.10;0.10;;;;;;;;;;4931124;29;20083;-64
2022/06/28 11:23:33;;;;;;;0.15;0.15;;;;;;;;;;4930621;29;20028;-64
2022/06/28 11:28:59;;;;;;;0.00;0.00;;;;;;;;;;4931242;29;20034;-64
2022/06/28 11:31:25;;;;;;;0.38;0.38;;;;;;;;;;4931820;29;20436;-64
2022/06/28 11:33:53;;;;;;;0.30;0.30;;;;;;;;;;4929731;29;20098;-64
2022/06/28 11:36:28;;;;;;;0.00;0.00;;;;;;;;;;4932167;29;20020;-64
2022/06/28 11:38:53;;;;;;;0.00;0.00;;;;;;;;;;4931839;29;20027;-65
2022/06/28 11:41:28;;;;;;;0.00;0.00;;;;;;;;;;4932667;29;20825;-65
2022/06/28 11:44:04;;;;;;;0.00;0.00;;;;;;;;;;4928867;29;20031;-64
2022/06/28 11:46:29;;;;;;;3.97;0.45;;;;;;;;;;4931814;29;20016;-65
2022/06/28 11:48:55;;;;;;;0.00;0.00;;;;;;;;;;4930937;29;20381;-65
2022/06/28 11:51:43;;;;;;;0.00;0.00;;;;;;;;;;4930541;29;20042;-65
2022/06/28 11:54:09;;;;;;;0.00;0.00;;;;;;;;;;4925283;29;20039;-67
2022/06/28 11:56:44;;;;;;;0.00;0.00;;;;;;;;;;4929691;29;20678;-63
2022/06/28 11:59:09;;;;;;;0.00;0.00;;;;;;;;;;4931602;29;20031;-63
2022/06/28 12:01:38;;;;;;;0.00;0.00;;;;;;;;;;4930261;29;20035;-63
2022/06/28 12:04:06;;;;;;;0.00;0.00;;;;;;;;;;4929310;29;20024;-64
2022/06/28 12:06:33;;;;;;;0.00;0.00;;;;;;;;;;4929324;29;20042;-62
2022/06/28 12:08:59;;;;;;;0.00;0.00;;;;;;;;;;4927621;29;20086;-64
2022/06/28 12:11:27;;;;;;;0.00;0.00;;;;;;;;;;4930076;29;20039;-63
2022/06/28 12:13:55;;;;;;;0.00;0.00;;;;;;;;;;4930447;29;20027;-63
2022/06/28 12:16:21;;;;;;;0.00;0.00;;;;;;;;;;4930975;29;20414;-63
2022/06/28 12:18:52;;;;;;;0.00;0.00;;;;;;;;;;4929605;29;20186;-62
2022/06/28 12:21:17;;;;;;;0.00;0.00;;;;;;;;;;4930892;29;20485;-62
2022/06/28 12:23:47;;;;;;;0.55;0.55;;;;;;;;;;4922546;29;20031;-63
2022/06/28 12:26:12;;;;;;;0.10;0.10;;;;;;;;;;4925195;29;20039;-63
2022/06/28 12:28:37;;;;;;;0.00;0.00;;;;;;;;;;4928502;29;20175;-64
2022/06/28 12:31:02;;;;;;;0.00;0.00;;;;;;;;;;4929164;29;20629;-63
2022/06/28 12:33:28;;;;;;;1.25;1.25;;;;;;;;;;4926152;29;20385;-65
2022/06/28 12:35:53;;;;;;;0.00;0.00;;;;;;;;;;4928981;29;20702;-65
2022/06/28 12:38:18;;;;;;;0.00;0.00;;;;;;;;;;4929343;29;20381;-64
2022/06/28 12:40:43;;;;;;;0.20;0.10;;;;;;;;;;4929301;29;20028;-64
2022/06/28 12:43:09;;;;;;;0.00;0.00;;;;;;;;;;4929633;29;20035;-63
2022/06/28 12:45:34;;;;;;;0.00;0.00;;;;;;;;;;4926807;29;20098;-65
2022/06/28 12:47:59;;;;;;;0.00;0.00;;;;;;;;;;4927459;29;20028;-64
2022/06/28 12:50:24;;;;;;;0.00;0.00;;;;;;;;;;4929197;29;20032;-64
2022/06/28 12:52:50;;;;;;;0.00;0.00;;;;;;;;;;4922946;29;20028;-64
2022/06/28 12:55:15;;;;;;;0.03;0.03;;;;;;;;;;4926255;29;20118;-64
2022/06/28 12:57:41;;;;;;;0.32;0.20;;;;;;;;;;4926441;29;20034;-63
2022/06/28 13:00:08;;;;;;;0.00;0.00;;;;;;;;;;4926373;29;20083;-63
2022/06/28 13:02:33;;;;;;;0.10;0.10;;;;;;;;;;4927244;29;20028;-64
2022/06/28 13:04:58;;;;;;;0.05;0.05;;;;;;;;;;4928982;29;20027;-62
2022/06/28 13:07:24;;;;;;;0.00;0.00;;;;;;;;;;4931312;29;20024;-63
2022/06/28 13:09:50;;;;;;;0.10;0.10;;;;;;;;;;4927755;29;20234;-63
2022/06/28 13:12:16;;;;;;;0.00;0.00;;;;;;;;;;4928152;29;20528;-63
2022/06/28 13:14:41;;;;;;;0.00;0.00;;;;;;;;;;4930989;29;20042;-64
2022/06/28 13:17:06;;;;;;;0.00;0.00;;;;;;;;;;4929681;29;20381;-62
2022/06/28 13:19:32;;;;;;;0.00;0.00;;;;;;;;;;4928762;29;20278;-62
2022/06/28 13:21:57;;;;;;;0.00;0.00;;;;;;;;;;4928690;29;20055;-62
2022/06/28 13:24:22;;;;;;;0.63;0.43;;;;;;;;;;4930009;29;20035;-63
2022/06/28 13:26:47;;;;;;;0.00;0.00;;;;;;;;;;4928994;29;20338;-63
2022/06/28 13:29:12;;;;;;;0.00;0.00;;;;;;;;;;4926396;29;20032;-63
2022/06/28 13:31:38;;;;;;;0.00;0.00;;;;;;;;;;4929069;29;20020;-63
2022/06/28 13:34:04;;;;;;;0.00;0.00;;;;;;;;;;4931032;29;20030;-62
2022/06/28 13:36:29;;;;;;;0.00;0.00;;;;;;;;;;4928055;29;20028;-63
2022/06/28 13:38:55;;;;;;;0.00;0.00;;;;;;;;;;4925877;29;20135;-62
2022/06/28 13:41:20;;;;;;;0.00;0.00;;;;;;;;;;4934239;29;20093;-64
2022/06/28 13:43:45;;;;;;;0.00;0.00;;;;;;;;;;4932713;29;20024;-62
2022/06/28 13:46:12;;;;;;;0.10;0.10;;;;;;;;;;4932121;29;20030;-63
2022/06/28 13:48:38;;;;;;;0.00;0.00;;;;;;;;;;4930648;29;20111;-62
2022/06/28 13:51:03;;;;;;;0.00;0.00;;;;;;;;;;4933268;29;20402;-62
2022/06/28 13:53:30;;;;;;;0.00;0.00;;;;;;;;;;4934072;29;20022;-62
2022/06/28 13:55:56;;;;;;;0.00;0.00;;;;;;;;;;4932601;29;20492;-63
2022/06/28 13:58:22;;;;;;;0.20;0.20;;;;;;;;;;4932728;29;20035;-63
2022/06/28 14:00:47;;;;;;;0.03;0.03;;;;;;;;;;4932710;29;20023;-63
2022/06/28 14:03:13;;;;;;;0.55;0.55;;;;;;;;;;4933893;29;20106;-63
2022/06/28 14:05:38;;;;;;;0.00;0.00;;;;;;;;;;4931849;29;20020;-63
2022/06/28 14:08:04;;;;;;;0.00;0.00;;;;;;;;;;4933313;29;20030;-63
2022/06/28 14:10:30;;;;;;;1.00;0.20;;;;;;;;;;4931856;29;20020;-63
2022/06/28 14:12:56;;;;;;;0.00;0.00;;;;;;;;;;4930694;29;20104;-63
2022/06/28 14:15:22;;;;;;;2.35;2.20;;;;;;;;;;4930815;29;20052;-63
2022/06/28 14:17:47;;;;;;;0.00;0.00;;;;;;;;;;4930843;29;20058;-63
2022/06/28 14:20:12;;;;;;;0.00;0.00;;;;;;;;;;4932030;29;20076;-62
2022/06/28 14:22:37;;;;;;;0.00;0.00;;;;;;;;;;4930577;29;20080;-62
2022/06/28 14:25:03;;;;;;;0.13;0.13;;;;;;;;;;4932574;29;20086;-62
2022/06/28 14:27:29;;;;;;;0.00;0.00;;;;;;;;;;4931640;29;20039;-63
2022/06/28 14:29:54;;;;;;;0.00;0.00;;;;;;;;;;4932585;29;20030;-62
2022/06/28 14:32:19;;;;;;;0.22;0.22;;;;;;;;;;4931452;29;20481;-63
2022/06/28 14:34:44;;;;;;;0.00;0.00;;;;;;;;;;4932664;29;20756;-63
2022/06/28 14:37:10;;;;;;;0.00;0.00;;;;;;;;;;4929964;29;20031;-63
2022/06/28 14:39:35;;;;;;;0.60;0.60;;;;;;;;;;4932697;29;20026;-62
2022/06/28 14:42:00;;;;;;;0.00;0.00;;;;;;;;;;4930862;29;20469;-62
2022/06/28 14:44:25;;;;;;;0.00;0.00;;;;;;;;;;4930704;29;20268;-65
2022/06/28 14:46:52;;;;;;;0.00;0.00;;;;;;;;;;4928861;29;20038;-63
2022/06/28 14:49:17;;;;;;;0.00;0.00;;;;;;;;;;4932737;29;20074;-62
2022/06/28 14:51:42;;;;;;;1.08;1.08;;;;;;;;;;4931088;29;20694;-64
2022/06/28 14:54:08;;;;;;;0.00;0.00;;;;;;;;;;4931907;29;20481;-63
2022/06/28 14:56:33;;;;;;;0.00;0.00;;;;;;;;;;4931408;29;20027;-62